Mashhad International Airport
OIMM : now visible

Airfield :











YOU CAN JOIN US ON...

 
LOGIN :

Register | Disclaimer

   EN    FR    IT 

 









Legend :    VFR   Marginal VFR   IFR   Intensive IFR   Very Intensive IFR
Visi :
Ceiling :
>= 8 km
>= 3000ft
5 to 8 km
1000 to 3000 ft
1500m to 5 km
500 to 1000 ft
800 to 1500m
200 to 500 ft
< 800m
< 200 ft
Symbols :   Thunderstorms  Fog  Heavy snow  Heavy precipitations  Wind > 20 kt







- Airport Elevation : 3263 ft
- IATA code : MHD


OIMM - Mashhad International

CURRENT METAR :
  • 191500Z 06010KT 4000 -RA BR SCT030 FEW035CB OVC100 03/03 Q1013 A2992

EXPIRED METARs :
  • 191430Z 07016KT 8000 -RA FEW035CB SCT040 BKN110 03/03 Q1012 A2989
  • 191400Z 07016KT 9999 FEW035CB SCT040 SCT200 05/03 Q1011 A2986
  • 191330Z 26006KT 9999 FEW035CB SCT040 SCT200 07/01 Q1010 A2983
  • 191300Z 24012KT 9999 FEW035CB SCT040 SCT200 08/01 Q1009 A2980
  • 191230Z 24012KT 9999 FEW035CB SCT040 SCT200 08/01 Q1009 A2979
  • 191220Z 24012KT 9999 FEW035CB SCT040 SCT200 08/01 Q1009 A2979

TAF TAF OIMM
Valid from the 19 at 12:00 until the 20 at 18:00 UTC


191100Z 1912/2018 03008KT 8000 FEW035CB SCT040 BKN090
TEMPO 1916/1924 12018KT 3000 RA/SN BKN010 SCT030CB SCT035 OVC090
TEMPO 1924/2003 1500 SN/BR
PROB40 0500 FG BKN005
BECMG 2004/2006 FEW035 SCT100
OIIX FIR / Asia



MET'MAP, your aeronautical weather chart ! - Copyright ORBIFLY December 2007 - Disclaimer

ORBIFLY MET'MAP TEAM :

Programming & Development : Alexandra Zaïnal
Concept & Development : Baudouin d'Aumeries
Co-Development & Prog : Marc-Olivier Méhu
Technical & hardware support : Manuel Goepfert

Contact : metmap@orbifly.com




SOURCES & CREDITS :

   NOAA       Earth
Advisory